x

Central Aleutians 230nm Sw Dutch Harbor (46072) Wave Buoy

6:50 - Wed 2nd Sep 2015 All times are UTC.

  • Sig Wave height 5.9ft
  • Peak Period 9s
  • Average Period 7s
  • Wind
    4mph
  • Sea Temp 55°f
  • Air Temp 52°f
  • Sea Pressure 1011.5mb

More Historic Weather Station data

Upgrade to MSW Pro to gain access to the past 30 days of data for over 8000 Wavebouys and Weather Stations around the globe.

Join Pro

Comparision Forecast

View Surf forecast
   
mer. 09/02 6:50 6ft 9s 7s 4
mph
1011.5mb 55f 52f
5:50 5.5ft 9s 7s 2 4 mph 1011.7mb 55f 52f
4:50 6ft 8s 7s 2 7 mph 1011.5mb 55f 53f
3:50 6ft 8s 7s 4 7 mph 1011.5mb 55f 52f
2:50 6ft 8s 7s 4 7 mph 1011.9mb 55f 53f
1:50 7ft 10s 7s 2 4 mph 1012.2mb 55f 53f
12:50 6ft 9s 6s 2 4 mph 1011.9mb 54f 52f
11:50 7ft 9s 7s  -  2 mph 1012.3mb 54f 52f
10:50 7ft 9s 7s 4
mph
1012.5mb 54f 52f
9:50 6.5ft 9s 7s 7
mph
1012.2mb 54f 53f
8:50 6.5ft 8s 7s 4 7 mph 1012.9mb 54f 53f
7:50 6ft 9s 6s 7 9 mph 1012.4mb 54f 52f
6:50 7ft 10s 7s 4 7 mph 1012mb 54f 52f
5:50 6ft 10s 6s 7 9 mph 1011.7mb 54f 52f
4:50 7ft 9s 6s 11 13 mph 1011.1mb 54f 54f
3:50 8ft 9s 7s 11 13 mph 1010.8mb 54f 54f
2:50 8ft 9s 7s 11 13 mph 1010.5mb 53f 53f
1:50 9ft 9s 7s 16 18 mph 1009.9mb 54f 53f
12:50 8.5ft 10s 7s 13 18 mph 1009.9mb 55f 53f
mar. 09/01 11:50 8.5ft 8s 7s 16 18 mph 1009.6mb 55f 54f
10:50 8.5ft 9s 6s 16 20 mph 1009.3mb 55f 54f
9:50 8ft 8s 6s 13 18 mph 1009mb 55f 54f
8:50 9ft 9s 7s 16 18 mph 1008.5mb 55f 54f
7:50 8.5ft 8s 6s 13 16 mph 1007.8mb 55f 54f
6:50 8.5ft 8s 6s 16 20 mph 1007.3mb 55f 54f
5:50 8ft 8s 6s 16 18 mph 1006.4mb 54f 53f
4:50 8.5ft 8s 6s 16 18 mph 1005.4mb 51f 53f
3:50 8.5ft 7s 6s 22 27 mph 1004.7mb 49f 53f
2:50 8.5ft 7s 6s 25 29 mph 1004.2mb 48f 53f
1:50 9ft 7s 6s 25 29 mph 1004.4mb 48f 54f
12:50 8ft 6s 5s 22 31 mph 1004.6mb 48f 55f
11:50 8ft 6s 5s 25 29 mph 1005mb 47f 56f
10:50 8ft 6s 5s 25 29 mph 1005.7mb 47f 56f
9:50 6.5ft 5s 5s 25 31 mph 1006.9mb 47f 56f
8:50 5ft 4s 4s 25 29 mph 1008.2mb 48f 56f
7:50 5ft 8s 5s 18 22 mph 1009.9mb 48f 55f
6:50 5ft 5s 5s 18 20 mph 1011.2mb 49f 54f
5:50 5ft 8s 5s 18 22 mph 1011.7mb 49f 55f
4:50 4.5ft 9s 5s 16 18 mph 1012.4mb 55f 56f
3:50 5ft 9s 6s 18 20 mph 1013mb 56f 56f
2:50 4.5ft 9s 5s 13 18 mph 1013.2mb 56f 56f
1:50 5ft 9s 6s 16 20 mph 1014.2mb 56f 56f
12:50 5ft 9s 6s 11 13 mph 1014.5mb 56f 56f
lun. 08/31 11:50 5ft 7s 5s 9 11 mph 1015mb 55f 56f
10:50 5ft 7s 5s 11 16 mph 1015.3mb 55f 56f
9:50 5ft 8s 6s 11 13 mph 1015.8mb 54f 56f
8:50 5ft 8s 6s 11 13 mph 1015.7mb 54f 56f
7:50 5ft 9s 6s 11 13 mph 1015.4mb 53f 55f
6:50 5.5ft 9s 7s 11 13 mph 1015.8mb 52f 55f
5:50 5.5ft 7s 7s 11 13 mph 1015.6mb 56f 55f
4:50 6ft 8s 7s 11 13 mph 1015.6mb 55f 55f
3:50 6ft 10s 7s 7
mph
1015.8mb 55f 55f
2:50 5.5ft 10s 7s 7 9 mph 1016.3mb 55f 54f
1:50 6ft 10s 7s 9 11 mph 1016.3mb 55f 53f
12:50 6ft 8s 6s 4
mph
1016.5mb 51f 52f
11:50 5.5ft 10s 6s 4 7 mph 1016.6mb 49f 51f
10:50 6ft 8s 6s 4
mph
1016.6mb 49f 51f
9:50 6ft 9s 6s 4 7 mph 1016.6mb 49f 51f
8:50 5.5ft 10s 6s 7
mph
1016.8mb 49f 51f
7:50 6ft 9s 6s 7
mph
1016.5mb 49f 51f
6:50 6ft 9s 6s 7 9 mph 1016mb 48f 50f
5:50 6.5ft 9s 6s 4 7 mph 1015.5mb 48f 51f
4:50 6ft 10s 6s 4 7 mph 1015.3mb 49f 51f
3:50 6ft 7s 6s 4 7 mph 1014.9mb 49f 51f
2:50 6.5ft 10s 7s 7 9 mph 1014.8mb 49f 52f
1:50 6ft 10s 7s 9 11 mph 1015mb 49f 52f
12:50 6ft 8s 6s 4 7 mph 1014.6mb 50f 53f
dim. 08/30 11:50 6.5ft 10s 6s 7
mph
1014.5mb 49f 53f
10:50 6.5ft 7s 6s 9 11 mph 1014.5mb 49f 54f
9:50 6.5ft 8s 6s 11 13 mph 1014.3mb 50f 54f
8:50 6.5ft 7s 6s 13 16 mph 1013.9mb 50f 54f
7:50 7ft 8s 5s 16 18 mph 1013.2mb 51f 54f
6:50 7ft 6s 6s 18 20 mph 1012.7mb 51f 54f
5:50 7.5ft 7s 6s 16 18 mph 1012.4mb 51f 55f
4:50 6.5ft 6s 6s 16 18 mph 1012.4mb 52f 55f
3:50 7ft 6s 6s 18 22 mph 1012.2mb 53f 55f
2:50 7ft 7s 6s 16 18 mph 1012.8mb 53f 55f
1:50 7ft 7s 6s 16 18 mph 1013mb 53f 55f
12:50 7ft 6s 6s 18 20 mph 1013mb 54f 56f
11:50 7ft 6s 6s 18 22 mph 1013.4mb 54f 56f
10:50 6ft 6s 5s 20 22 mph 1013.4mb 54f 56f
9:50 7ft 6s 5s 20 22 mph 1013.8mb 54f 56f
8:50 6.5ft 6s 5s 22 27 mph 1014.2mb 53f 56f
7:50 7ft 6s 5s 22 25 mph 1014.4mb 53f 56f
6:50 6.5ft 6s 5s 20 25 mph 1015mb 53f 56f
5:50 7ft 6s 5s 20 22 mph 1015.2mb 52f 55f
4:50 7ft 6s 6s 16 18 mph 1015.6mb 52f 56f
3:50 7ft 6s 6s 18 22 mph 1015.9mb 52f 56f
2:50 6.5ft 6s 6s 20 25 mph 1016.3mb 52f 56f
1:50 7ft 6s 6s 22 27 mph 1016.6mb 53f 55f
12:50 7.5ft 6s 6s 22 29 mph 1017mb 53f 55f
sam. 08/29 11:50 7ft 6s 6s 22 27 mph 1017.3mb 52f 55f
10:50 7ft 10s 6s 22 29 mph 1018mb 52f 56f
9:50 6ft 5s 5s 20 25 mph 1018.6mb 53f 56f
8:50 6ft 9s 5s 22 27 mph 1019mb 54f 56f
7:50 6ft 5s 5s 22 25 mph 1019.6mb 54f 56f